createdAt,value
2018-05-13T00:00:40.332Z,0.00
2018-05-13T00:01:40.229Z,0.00
2018-05-13T00:02:40.137Z,0.00
2018-05-13T00:03:40.038Z,0.00
2018-05-13T00:04:39.947Z,0.00
2018-05-13T00:05:39.852Z,0.00
2018-05-13T00:06:39.749Z,0.00
2018-05-13T00:07:39.659Z,0.00
2018-05-13T00:08:39.556Z,0.00
2018-05-13T00:09:39.464Z,0.00
2018-05-13T00:10:39.360Z,0.00
2018-05-13T00:11:39.270Z,0.00
2018-05-13T00:12:39.180Z,0.00
2018-05-13T00:13:39.080Z,0.00
2018-05-13T00:14:38.989Z,0.00
2018-05-13T00:15:38.886Z,0.00
2018-05-13T00:16:38.791Z,0.00
2018-05-13T00:17:38.701Z,0.00
2018-05-13T00:18:38.597Z,0.00
2018-05-13T00:19:38.505Z,0.00
2018-05-13T00:20:38.477Z,0.00
2018-05-13T00:21:38.313Z,0.00
2018-05-13T00:22:38.210Z,0.00
2018-05-13T00:23:38.119Z,0.00
2018-05-13T00:24:38.016Z,0.00
2018-05-13T00:25:37.930Z,0.00
2018-05-13T00:26:37.833Z,0.00
2018-05-13T00:27:37.729Z,0.00
2018-05-13T00:28:37.639Z,0.00
2018-05-13T00:29:37.536Z,0.00
2018-05-13T00:30:37.445Z,0.00
2018-05-13T00:31:37.343Z,0.00
2018-05-13T00:32:37.252Z,0.00
2018-05-13T00:33:37.162Z,0.00
2018-05-13T00:34:37.067Z,0.00
2018-05-13T00:35:36.966Z,0.00
2018-05-13T00:36:36.864Z,0.00
2018-05-13T00:37:36.772Z,0.00
2018-05-13T00:38:36.669Z,0.00
2018-05-13T00:39:36.829Z,0.00
2018-05-13T00:40:36.487Z,0.00
2018-05-13T00:41:36.383Z,0.00
2018-05-13T00:42:36.294Z,0.00
2018-05-13T00:43:36.190Z,0.00
2018-05-13T00:44:36.100Z,0.00
2018-05-13T00:45:35.996Z,0.00
2018-05-13T00:46:35.906Z,0.00
2018-05-13T00:47:35.814Z,0.00
2018-05-13T00:48:35.710Z,0.00
2018-05-13T00:49:35.620Z,0.00
2018-05-13T00:50:35.539Z,0.00
2018-05-13T00:51:35.426Z,0.00
2018-05-13T00:52:35.323Z,0.00
2018-05-13T00:53:35.231Z,0.00
2018-05-13T00:54:35.140Z,0.00
2018-05-13T00:55:35.037Z,0.00
2018-05-13T00:56:34.947Z,0.00
2018-05-13T00:57:34.843Z,0.00
2018-05-13T00:58:34.752Z,0.00
2018-05-13T00:59:34.649Z,0.00
2018-05-13T01:00:34.559Z,0.00
2018-05-13T01:01:34.467Z,0.00
2018-05-13T01:02:34.369Z,0.00
2018-05-13T01:03:34.274Z,0.00
2018-05-13T01:04:34.171Z,0.00
2018-05-13T01:05:34.079Z,0.00
2018-05-13T01:06:33.976Z,0.00
2018-05-13T01:07:33.885Z,0.00
2018-05-13T01:08:33.793Z,0.00
2018-05-13T01:09:33.690Z,0.00
2018-05-13T01:10:33.600Z,0.00
2018-05-13T01:11:33.497Z,0.00
2018-05-13T01:12:33.407Z,0.00
2018-05-13T01:13:33.302Z,0.00
2018-05-13T01:14:33.216Z,0.00
2018-05-13T01:15:33.112Z,0.00
2018-05-13T01:16:33.031Z,0.00
2018-05-13T01:17:32.935Z,0.00
2018-05-13T01:18:32.906Z,0.00
2018-05-13T01:19:33.034Z,0.00
2018-05-13T01:20:32.651Z,0.00
2018-05-13T01:21:32.539Z,0.00
2018-05-13T01:22:32.435Z,0.00
2018-05-13T01:23:32.343Z,0.00
2018-05-13T01:24:32.243Z,0.00
2018-05-13T01:25:32.154Z,0.00
2018-05-13T01:26:32.059Z,0.00
2018-05-13T01:27:31.956Z,0.00
2018-05-13T01:28:31.866Z,0.00
2018-05-13T01:29:31.762Z,0.00
2018-05-13T01:30:31.671Z,0.00
2018-05-13T01:31:31.567Z,0.00
2018-05-13T01:32:31.481Z,0.00
2018-05-13T01:33:31.375Z,0.00
2018-05-13T01:34:31.282Z,0.00
2018-05-13T01:35:31.193Z,0.00
2018-05-13T01:36:31.092Z,0.00
2018-05-13T01:37:30.997Z,0.00
2018-05-13T01:38:30.895Z,0.00
2018-05-13T01:39:30.804Z,0.00
2018-05-13T01:40:30.703Z,0.00
2018-05-13T01:41:30.610Z,0.00
2018-05-13T01:42:30.508Z,0.00
2018-05-13T01:43:30.418Z,0.00
2018-05-13T01:44:30.325Z,0.00
2018-05-13T01:45:30.221Z,0.00
2018-05-13T01:46:30.132Z,0.00
2018-05-13T01:47:30.028Z,0.00
2018-05-13T01:48:29.936Z,0.00
2018-05-13T01:49:29.833Z,0.00
2018-05-13T01:50:29.743Z,0.00
2018-05-13T01:51:29.644Z,0.00
2018-05-13T01:52:29.551Z,0.00
2018-05-13T01:53:29.447Z,0.00
2018-05-13T01:54:29.357Z,0.00
2018-05-13T01:55:29.264Z,0.00
2018-05-13T01:56:29.161Z,0.00
2018-05-13T01:57:29.072Z,0.00
2018-05-13T01:58:28.966Z,0.00
2018-05-13T01:59:28.875Z,0.00
2018-05-13T02:00:28.772Z,0.00
2018-05-13T02:01:28.682Z,0.00
2018-05-13T02:02:28.579Z,0.00
2018-05-13T02:03:28.488Z,0.00
2018-05-13T02:04:28.396Z,0.00
2018-05-13T02:05:28.293Z,0.00
2018-05-13T02:06:28.202Z,0.00
2018-05-13T02:07:28.098Z,0.00
2018-05-13T02:08:28.009Z,0.00
2018-05-13T02:09:27.905Z,0.00
2018-05-13T02:10:27.813Z,0.00
2018-05-13T02:11:27.713Z,0.00
2018-05-13T02:12:27.620Z,0.00
2018-05-13T02:13:27.517Z,0.00
2018-05-13T02:14:27.428Z,0.00
2018-05-13T02:15:27.336Z,0.00
2018-05-13T02:16:27.231Z,0.00
2018-05-13T02:17:27.141Z,0.00
2018-05-13T02:18:27.038Z,0.00
2018-05-13T02:19:26.947Z,0.00
2018-05-13T02:20:26.844Z,0.00
2018-05-13T02:21:26.752Z,0.00
2018-05-13T02:22:26.648Z,0.00
2018-05-13T02:23:26.559Z,0.00
2018-05-13T02:24:26.766Z,0.00
2018-05-13T02:25:26.367Z,0.00
2018-05-13T02:26:26.274Z,0.00
2018-05-13T02:27:26.170Z,0.00
2018-05-13T02:28:26.079Z,0.00
2018-05-13T02:29:25.975Z,0.00
2018-05-13T02:30:25.886Z,0.00
2018-05-13T02:31:25.783Z,0.00
2018-05-13T02:32:25.690Z,0.00
2018-05-13T02:33:25.588Z,0.00
2018-05-13T02:34:25.553Z,4.00
2018-05-13T02:35:25.396Z,4.00
2018-05-13T02:36:25.309Z,4.00
2018-05-13T02:37:25.203Z,0.00
2018-05-13T02:38:25.103Z,4.00
2018-05-13T02:39:25.018Z,4.00
2018-05-13T02:40:24.927Z,0.00
2018-05-13T02:41:24.824Z,4.00
2018-05-13T02:42:24.722Z,8.00
2018-05-13T02:43:24.634Z,4.00
2018-05-13T02:44:24.778Z,8.00
2018-05-13T02:45:24.436Z,8.00
2018-05-13T02:46:24.334Z,8.00
2018-05-13T02:47:24.241Z,8.00
2018-05-13T02:48:24.138Z,8.00
2018-05-13T02:49:24.047Z,12.00
2018-05-13T02:50:23.949Z,12.00
2018-05-13T02:51:23.855Z,16.00
2018-05-13T02:52:23.763Z,16.00
2018-05-13T02:53:23.664Z,20.00
2018-05-13T02:54:23.568Z,24.00
2018-05-13T02:55:23.465Z,28.00
2018-05-13T02:56:23.381Z,32.00
2018-05-13T02:57:23.275Z,36.00
2018-05-13T02:58:23.179Z,40.00
2018-05-13T02:59:23.076Z,44.00
2018-05-13T03:00:22.987Z,48.00
2018-05-13T03:01:22.884Z,56.00
2018-05-13T03:02:22.792Z,60.00
2018-05-13T03:03:22.689Z,68.00
2018-05-13T03:04:22.848Z,76.00
2018-05-13T03:05:22.495Z,88.00
2018-05-13T03:06:22.403Z,92.00
2018-05-13T03:07:22.315Z,104.00
2018-05-13T03:08:22.210Z,112.00
2018-05-13T03:09:22.120Z,120.00
2018-05-13T03:10:22.021Z,132.00
2018-05-13T03:11:21.925Z,148.00
2018-05-13T03:12:21.822Z,160.00
2018-05-13T03:13:21.729Z,172.00
2018-05-13T03:14:21.628Z,188.00
2018-05-13T03:15:21.536Z,200.00
2018-05-13T03:16:21.445Z,220.00
2018-05-13T03:17:21.343Z,232.00
2018-05-13T03:18:21.241Z,252.00
2018-05-13T03:19:21.148Z,268.00
2018-05-13T03:20:21.056Z,288.00
2018-05-13T03:21:20.956Z,308.00
2018-05-13T03:22:20.863Z,324.00
2018-05-13T03:23:20.759Z,348.00
2018-05-13T03:24:20.668Z,368.00
2018-05-13T03:25:20.565Z,392.00
2018-05-13T03:26:20.476Z,416.00
2018-05-13T03:27:20.375Z,440.00
2018-05-13T03:28:20.280Z,468.00
2018-05-13T03:29:20.177Z,488.00
2018-05-13T03:30:20.088Z,516.00
2018-05-13T03:31:19.995Z,544.00
2018-05-13T03:32:19.893Z,572.00
2018-05-13T03:33:19.802Z,600.00
2018-05-13T03:34:19.699Z,624.00
2018-05-13T03:35:19.611Z,656.00
2018-05-13T03:36:19.504Z,684.00
2018-05-13T03:37:19.415Z,720.00
2018-05-13T03:38:19.310Z,748.00
2018-05-13T03:39:19.219Z,784.00
2018-05-13T03:40:19.117Z,816.00
2018-05-13T03:41:19.026Z,852.00
2018-05-13T03:42:18.924Z,888.00
2018-05-13T03:43:18.831Z,920.00
2018-05-13T03:44:18.741Z,956.00
2018-05-13T03:45:18.637Z,996.00
2018-05-13T03:46:18.546Z,1036.00
2018-05-13T03:47:18.443Z,1076.00
2018-05-13T03:48:18.353Z,1112.00
2018-05-13T03:49:18.252Z,1156.00
2018-05-13T03:50:18.157Z,1200.00
2018-05-13T03:51:18.054Z,1240.00
2018-05-13T03:52:17.964Z,1284.00
2018-05-13T03:53:17.872Z,1324.00
2018-05-13T03:54:17.769Z,1368.00
2018-05-13T03:55:17.680Z,1412.00
2018-05-13T03:56:17.575Z,1452.00
2018-05-13T03:57:17.483Z,1492.00
2018-05-13T03:58:17.381Z,1532.00
2018-05-13T03:59:17.294Z,1580.00
2018-05-13T04:00:17.188Z,1620.00
2018-05-13T04:01:17.095Z,1664.00
2018-05-13T04:02:17.005Z,1700.00
2018-05-13T04:03:16.902Z,1748.00
2018-05-13T04:04:17.062Z,1796.00
2018-05-13T04:05:16.707Z,1860.00
2018-05-13T04:06:16.622Z,1920.00
2018-05-13T04:07:16.587Z,1964.00
2018-05-13T04:08:16.424Z,2000.00
2018-05-13T04:09:16.333Z,2036.00
2018-05-13T04:10:16.230Z,2084.00
2018-05-13T04:11:16.138Z,2132.00
2018-05-13T04:12:16.035Z,2160.00
2018-05-13T04:13:15.944Z,2196.00
2018-05-13T04:14:15.844Z,2244.00
2018-05-13T04:15:15.749Z,2300.00
2018-05-13T04:16:15.660Z,2348.00
2018-05-13T04:17:15.559Z,2384.00
2018-05-13T04:18:15.465Z,2460.00
2018-05-13T04:19:15.376Z,2504.00
2018-05-13T04:20:15.272Z,2564.00
2018-05-13T04:21:15.180Z,2644.00
2018-05-13T04:22:15.077Z,2720.00
2018-05-13T04:23:14.986Z,2792.00
2018-05-13T04:24:14.896Z,2888.00
2018-05-13T04:25:14.795Z,3016.00
2018-05-13T04:26:14.702Z,3128.00
2018-05-13T04:27:14.609Z,3216.00
2018-05-13T04:28:14.519Z,3276.00
2018-05-13T04:29:14.449Z,3384.00
2018-05-13T04:30:14.314Z,3548.00
2018-05-13T04:31:14.221Z,3688.00
2018-05-13T04:32:14.130Z,3736.00
2018-05-13T04:33:14.028Z,3820.00
2018-05-13T04:34:13.936Z,3888.00
2018-05-13T04:35:13.846Z,3944.00
2018-05-13T04:36:13.743Z,4028.00
2018-05-13T04:37:13.665Z,4080.00
2018-05-13T04:38:13.566Z,4120.00
2018-05-13T04:39:13.462Z,4188.00
2018-05-13T04:40:13.366Z,4240.00
2018-05-13T04:41:13.279Z,4288.00
2018-05-13T04:42:13.184Z,4360.00
2018-05-13T04:43:13.082Z,4404.00
2018-05-13T04:44:12.992Z,4476.00
2018-05-13T04:45:12.900Z,4524.00
2018-05-13T04:46:12.799Z,4580.00
2018-05-13T04:47:12.707Z,4616.00
2018-05-13T04:48:12.615Z,4712.00
2018-05-13T04:49:12.525Z,4768.00
2018-05-13T04:50:12.422Z,4816.00
2018-05-13T04:51:12.330Z,4904.00
2018-05-13T04:52:12.239Z,4952.00
2018-05-13T04:53:12.149Z,5008.00
2018-05-13T04:54:12.061Z,5092.00
2018-05-13T04:55:11.955Z,5160.00
2018-05-13T04:56:11.863Z,5240.00
2018-05-13T04:57:11.776Z,5280.00
2018-05-13T04:58:11.681Z,5316.00
2018-05-13T04:59:11.592Z,5384.00
2018-05-13T05:00:11.489Z,5468.00
2018-05-13T05:01:11.396Z,5512.00
2018-05-13T05:02:11.306Z,5564.00
2018-05-13T05:03:11.215Z,5608.00
2018-05-13T05:04:11.125Z,5668.00
2018-05-13T05:05:11.038Z,5712.00
2018-05-13T05:06:10.930Z,5764.00
2018-05-13T05:07:10.842Z,5848.00
2018-05-13T05:08:10.750Z,5884.00
2018-05-13T05:09:10.659Z,5920.00
2018-05-13T05:10:10.568Z,5996.00
2018-05-13T05:11:10.476Z,6036.00
2018-05-13T05:12:10.386Z,6100.00
2018-05-13T05:13:10.282Z,6220.00
2018-05-13T05:14:10.196Z,6308.00
2018-05-13T05:15:10.100Z,6416.00
2018-05-13T05:16:10.011Z,6528.00
2018-05-13T05:17:09.918Z,6600.00
2018-05-13T05:18:09.830Z,6732.00
2018-05-13T05:19:09.736Z,6792.00
2018-05-13T05:20:09.646Z,6864.00
2018-05-13T05:21:09.555Z,6936.00
2018-05-13T05:22:09.458Z,7000.00
2018-05-13T05:23:09.362Z,7080.00
2018-05-13T05:24:09.270Z,7188.00
2018-05-13T05:25:09.181Z,7232.00
2018-05-13T05:26:09.089Z,7340.00
2018-05-13T05:27:09.008Z,7428.00
2018-05-13T05:28:08.907Z,7460.00
2018-05-13T05:29:08.817Z,7504.00
2018-05-13T05:30:08.741Z,7516.00
2018-05-13T05:31:08.635Z,7528.00
2018-05-13T05:32:08.544Z,7532.00
2018-05-13T05:33:08.454Z,7568.00
2018-05-13T05:34:08.362Z,7664.00
2018-05-13T05:35:08.278Z,7704.00
2018-05-13T05:36:08.180Z,7824.00
2018-05-13T05:37:08.090Z,7872.00
2018-05-13T05:38:07.999Z,7912.00
2018-05-13T05:39:07.908Z,7956.00
2018-05-13T05:40:07.817Z,7984.00
2018-05-13T05:41:07.727Z,8044.00
2018-05-13T05:42:07.635Z,8128.00
2018-05-13T05:43:07.546Z,8240.00
2018-05-13T05:44:07.454Z,8300.00
2018-05-13T05:45:07.364Z,8412.00
2018-05-13T05:46:07.272Z,8496.00
2018-05-13T05:47:07.184Z,8616.00
2018-05-13T05:48:07.104Z,8668.00
2018-05-13T05:49:07.011Z,8748.00
2018-05-13T05:50:06.922Z,8828.00
2018-05-13T05:51:06.831Z,8916.00
2018-05-13T05:52:06.740Z,8992.00
2018-05-13T05:53:06.649Z,9032.00
2018-05-13T05:54:06.559Z,9092.00
2018-05-13T05:55:06.468Z,9196.00
2018-05-13T05:56:06.377Z,9200.00
2018-05-13T05:57:06.286Z,9228.00
2018-05-13T05:58:06.195Z,9316.00
2018-05-13T05:59:06.106Z,9340.00
2018-05-13T06:00:06.026Z,9424.00
2018-05-13T06:01:05.941Z,9552.00
2018-05-13T06:02:05.843Z,9624.00
2018-05-13T06:03:05.754Z,9700.00
2018-05-13T06:04:05.662Z,9816.00
2018-05-13T06:05:05.573Z,9980.00
2018-05-13T06:06:05.482Z,10104.00
2018-05-13T06:07:05.395Z,10264.00
2018-05-13T06:08:05.312Z,10256.00
2018-05-13T06:09:05.221Z,10200.00
2018-05-13T06:10:05.132Z,10248.00
2018-05-13T06:11:05.039Z,10368.00
2018-05-13T06:12:04.950Z,10472.00
2018-05-13T06:13:04.859Z,10796.00
2018-05-13T06:14:04.768Z,10908.00
2018-05-13T06:15:04.689Z,10696.00
2018-05-13T06:16:04.598Z,10576.00
2018-05-13T06:17:04.508Z,10576.00
2018-05-13T06:18:04.417Z,10604.00
2018-05-13T06:19:04.326Z,10656.00
2018-05-13T06:20:04.236Z,10752.00
2018-05-13T06:21:04.159Z,10804.00
2018-05-13T06:22:04.066Z,10912.00
2018-05-13T06:23:03.987Z,10976.00
2018-05-13T06:24:04.189Z,10992.00
2018-05-13T06:25:03.798Z,11032.00
2018-05-13T06:26:03.718Z,11164.00
2018-05-13T06:27:03.625Z,11264.00
2018-05-13T06:28:03.534Z,11360.00
2018-05-13T06:29:03.443Z,11448.00
2018-05-13T06:30:03.354Z,11568.00
2018-05-13T06:31:03.273Z,11612.00
2018-05-13T06:32:03.183Z,11664.00
2018-05-13T06:33:03.092Z,11720.00
2018-05-13T06:34:03.002Z,11788.00
2018-05-13T06:35:02.923Z,11908.00
2018-05-13T06:36:02.832Z,11936.00
2018-05-13T06:37:02.741Z,12092.00
2018-05-13T06:38:02.651Z,12204.00
2018-05-13T06:39:02.572Z,12196.00
2018-05-13T06:40:02.485Z,12240.00
2018-05-13T06:41:02.389Z,12292.00
2018-05-13T06:42:02.302Z,12428.00
2018-05-13T06:43:02.221Z,12540.00
2018-05-13T06:44:02.130Z,12620.00
2018-05-13T06:45:02.043Z,12752.00
2018-05-13T06:46:01.962Z,12864.00
2018-05-13T06:47:01.870Z,12956.00
2018-05-13T06:48:01.781Z,13100.00
2018-05-13T06:49:01.689Z,13124.00
2018-05-13T06:50:01.610Z,13184.00
2018-05-13T06:51:01.549Z,13252.00
2018-05-13T06:52:01.430Z,13332.00
2018-05-13T06:53:01.339Z,13500.00
2018-05-13T06:54:01.261Z,13596.00
2018-05-13T06:55:01.169Z,13768.00
2018-05-13T06:56:01.080Z,13928.00
2018-05-13T06:57:00.988Z,14032.00
2018-05-13T06:58:00.909Z,14204.00
2018-05-13T06:59:00.820Z,14244.00
2018-05-13T07:00:00.729Z,14352.00
2018-05-13T07:01:00.649Z,14568.00
2018-05-13T07:02:00.562Z,14768.00
2018-05-13T07:03:00.467Z,14908.00
2018-05-13T07:04:00.389Z,15136.00
2018-05-13T07:05:00.299Z,15176.00
2018-05-13T07:06:00.207Z,15336.00
2018-05-13T07:07:00.129Z,15496.00
2018-05-13T07:08:00.040Z,15680.00
2018-05-13T07:09:00.197Z,15896.00
2018-05-13T07:09:59.870Z,16236.00
2018-05-13T07:10:59.779Z,16376.00
2018-05-13T07:11:59.688Z,16596.00
2018-05-13T07:12:59.609Z,16968.00
2018-05-13T07:13:59.519Z,17276.00
2018-05-13T07:14:59.428Z,17856.00
2018-05-13T07:15:59.349Z,17888.00
2018-05-13T07:16:59.258Z,17920.00
2018-05-13T07:17:59.182Z,18016.00
2018-05-13T07:18:59.090Z,18144.00
2018-05-13T07:19:58.999Z,18144.00
2018-05-13T07:20:58.922Z,18432.00
2018-05-13T07:21:58.830Z,18656.00
2018-05-13T07:22:58.751Z,18816.00
2018-05-13T07:23:58.915Z,19232.00
2018-05-13T07:24:58.574Z,19488.00
2018-05-13T07:25:58.496Z,19584.00
2018-05-13T07:26:58.401Z,19808.00
2018-05-13T07:27:58.323Z,19936.00
2018-05-13T07:28:58.232Z,20096.00
2018-05-13T07:29:58.153Z,20064.00
2018-05-13T07:30:58.063Z,20224.00
2018-05-13T07:31:57.984Z,20512.00
2018-05-13T07:32:57.897Z,20992.00
2018-05-13T07:33:57.802Z,21376.00
2018-05-13T07:34:57.725Z,21792.00
2018-05-13T07:35:57.633Z,22112.00
2018-05-13T07:36:57.555Z,22336.00
2018-05-13T07:37:57.466Z,23008.00
2018-05-13T07:38:57.374Z,23936.00
2018-05-13T07:39:57.295Z,25280.00
2018-05-13T07:40:57.207Z,26368.00
2018-05-13T07:41:57.126Z,27712.00
2018-05-13T07:42:57.035Z,29728.00
2018-05-13T07:43:56.956Z,33280.00
2018-05-13T07:44:56.878Z,38752.00
2018-05-13T07:45:56.788Z,42848.00
2018-05-13T07:46:56.700Z,37376.00
2018-05-13T07:47:56.618Z,21984.00
2018-05-13T07:48:56.528Z,11788.00
2018-05-13T07:49:56.451Z,11136.00
2018-05-13T07:50:56.411Z,10904.00
2018-05-13T07:51:56.285Z,10756.00
2018-05-13T07:52:56.193Z,10712.00
2018-05-13T07:53:56.112Z,10680.00
2018-05-13T07:54:56.021Z,10740.00
2018-05-13T07:55:55.930Z,10748.00
2018-05-13T07:56:55.838Z,10736.00
2018-05-13T07:57:55.807Z,10736.00
2018-05-13T07:58:55.669Z,10752.00
2018-05-13T07:59:55.579Z,10684.00
2018-05-13T08:00:55.489Z,10548.00
2018-05-13T08:01:55.410Z,10468.00
2018-05-13T08:02:55.318Z,10452.00
2018-05-13T08:03:55.229Z,10432.00
2018-05-13T08:04:55.137Z,10340.00
2018-05-13T08:05:55.047Z,10280.00
2018-05-13T08:06:54.969Z,10232.00
2018-05-13T08:07:54.877Z,10188.00
2018-05-13T08:08:54.787Z,10200.00
2018-05-13T08:09:54.695Z,10152.00
2018-05-13T08:10:54.606Z,10160.00
2018-05-13T08:11:54.515Z,10172.00
2018-05-13T08:12:54.435Z,10152.00
2018-05-13T08:13:54.346Z,10076.00
2018-05-13T08:14:54.255Z,10076.00
2018-05-13T08:15:54.169Z,10076.00
2018-05-13T08:16:54.072Z,9964.00
2018-05-13T08:17:53.982Z,9940.00
2018-05-13T08:18:54.141Z,9952.00
2018-05-13T08:19:53.800Z,9892.00
2018-05-13T08:20:53.712Z,9836.00
2018-05-13T08:21:53.620Z,9796.00
2018-05-13T08:22:53.540Z,9776.00
2018-05-13T08:23:53.450Z,9908.00
2018-05-13T08:24:53.359Z,10024.00
2018-05-13T08:25:53.267Z,10060.00
2018-05-13T08:26:53.178Z,10200.00
2018-05-13T08:27:53.088Z,10332.00
2018-05-13T08:28:53.001Z,10424.00
2018-05-13T08:29:52.905Z,10552.00
2018-05-13T08:30:52.814Z,10572.00
2018-05-13T08:31:52.723Z,10648.00
2018-05-13T08:32:52.633Z,10668.00
2018-05-13T08:33:52.541Z,10660.00
2018-05-13T08:34:52.452Z,10776.00
2018-05-13T08:35:52.360Z,10780.00
2018-05-13T08:36:52.269Z,10836.00
2018-05-13T08:37:52.190Z,10944.00
2018-05-13T08:38:52.100Z,10940.00
2018-05-13T08:39:52.016Z,11012.00
2018-05-13T08:40:51.918Z,11056.00
2018-05-13T08:41:51.827Z,11092.00
2018-05-13T08:42:51.735Z,11204.00
2018-05-13T08:43:51.900Z,11616.00
2018-05-13T08:44:51.555Z,12920.00
2018-05-13T08:45:51.464Z,19424.00
2018-05-13T08:46:51.372Z,32832.00
2018-05-13T08:47:51.286Z,44224.00
2018-05-13T08:48:51.191Z,49376.00
2018-05-13T08:49:51.101Z,50400.00
2018-05-13T08:50:51.009Z,50752.00
2018-05-13T08:51:50.919Z,51840.00
2018-05-13T08:52:50.830Z,51840.00
2018-05-13T08:53:50.738Z,50656.00
2018-05-13T08:54:50.660Z,48544.00
2018-05-13T08:55:50.568Z,47872.00
2018-05-13T08:56:50.478Z,48768.00
2018-05-13T08:57:50.387Z,48704.00
2018-05-13T08:58:50.308Z,47520.00
2018-05-13T08:59:50.211Z,47008.00
2018-05-13T09:00:50.126Z,48416.00
2018-05-13T09:01:50.048Z,49696.00
2018-05-13T09:02:49.958Z,50272.00
2018-05-13T09:03:50.168Z,50176.00
2018-05-13T09:04:49.792Z,49728.00
2018-05-13T09:05:49.698Z,50528.00
2018-05-13T09:06:49.610Z,53056.00
2018-05-13T09:07:49.528Z,54432.00
2018-05-13T09:08:49.439Z,53312.00
2018-05-13T09:09:49.360Z,50592.00
2018-05-13T09:10:49.271Z,49984.00
2018-05-13T09:11:49.190Z,51616.00
2018-05-13T09:12:49.100Z,54400.00
2018-05-13T09:13:49.021Z,57696.00
2018-05-13T09:14:48.930Z,59680.00
2018-05-13T09:15:48.853Z,60000.00
2018-05-13T09:16:48.763Z,58720.00
2018-05-13T09:17:48.689Z,56896.00
2018-05-13T09:18:48.857Z,54560.00
2018-05-13T09:19:48.513Z,51296.00
2018-05-13T09:20:48.470Z,48480.00
2018-05-13T09:21:48.345Z,45280.00
2018-05-13T09:22:48.267Z,43744.00
2018-05-13T09:23:48.192Z,42656.00
2018-05-13T09:24:48.097Z,42688.00
2018-05-13T09:25:48.019Z,42176.00
2018-05-13T09:26:47.951Z,41824.00
2018-05-13T09:27:47.852Z,41408.00
2018-05-13T09:28:47.778Z,40704.00
2018-05-13T09:29:47.693Z,40512.00
2018-05-13T09:30:47.602Z,40160.00
2018-05-13T09:31:47.524Z,40000.00
2018-05-13T09:32:47.446Z,39648.00
2018-05-13T09:33:47.355Z,39616.00
2018-05-13T09:34:47.278Z,39744.00
2018-05-13T09:35:47.199Z,39712.00
2018-05-13T09:36:47.109Z,39584.00
2018-05-13T09:37:47.042Z,39552.00
2018-05-13T09:38:46.951Z,39712.00
2018-05-13T09:39:46.873Z,39776.00
2018-05-13T09:40:46.782Z,39520.00
2018-05-13T09:41:46.703Z,39232.00
2018-05-13T09:42:46.625Z,39264.00
2018-05-13T09:43:46.801Z,39264.00
2018-05-13T09:44:46.458Z,39104.00
2018-05-13T09:45:46.386Z,38976.00
2018-05-13T09:46:46.299Z,38560.00
2018-05-13T09:47:46.221Z,38656.00
2018-05-13T09:48:46.131Z,38720.00
2018-05-13T09:49:46.052Z,38944.00
2018-05-13T09:50:45.974Z,38688.00
2018-05-13T09:51:45.885Z,38720.00
2018-05-13T09:52:45.806Z,38336.00
2018-05-13T09:53:45.726Z,37984.00
2018-05-13T09:54:45.647Z,37792.00
2018-05-13T09:55:45.572Z,37696.00
2018-05-13T09:56:45.481Z,37504.00
2018-05-13T09:57:45.512Z,37536.00
2018-05-13T09:58:45.322Z,37344.00
2018-05-13T09:59:45.245Z,37152.00
2018-05-13T10:00:45.154Z,37280.00
2018-05-13T10:01:45.075Z,36864.00
2018-05-13T10:02:44.996Z,36736.00
2018-05-13T10:03:44.932Z,36640.00
2018-05-13T10:04:44.841Z,36832.00
2018-05-13T10:05:44.754Z,36928.00
2018-05-13T10:06:44.671Z,36768.00
2018-05-13T10:07:44.592Z,37632.00
2018-05-13T10:08:44.514Z,45184.00
2018-05-13T10:09:44.436Z,53600.00
2018-05-13T10:10:44.359Z,55168.00
2018-05-13T10:11:44.281Z,54656.00
2018-05-13T10:12:44.189Z,53824.00
2018-05-13T10:13:44.109Z,54880.00
2018-05-13T10:14:44.032Z,56960.00
2018-05-13T10:15:43.952Z,65888.00
2018-05-13T10:16:43.874Z,100000.00
2018-05-13T10:17:43.797Z,154464.00
2018-05-13T10:18:43.719Z,183616.00
2018-05-13T10:19:43.639Z,169536.00
2018-05-13T10:20:43.575Z,147648.00
2018-05-13T10:21:43.483Z,139744.00
2018-05-13T10:22:43.404Z,138272.00
2018-05-13T10:23:43.318Z,134016.00
2018-05-13T10:24:43.236Z,126432.00
2018-05-13T10:25:43.161Z,124448.00
2018-05-13T10:26:43.080Z,117088.00
2018-05-13T10:27:43.000Z,133408.00
2018-05-13T10:28:42.922Z,132512.00
2018-05-13T10:29:42.845Z,131552.00
2018-05-13T10:30:42.766Z,133120.00
2018-05-13T10:31:42.688Z,131712.00
2018-05-13T10:32:42.609Z,133536.00
2018-05-13T10:33:42.532Z,127424.00
2018-05-13T10:34:42.452Z,115616.00
2018-05-13T10:35:42.374Z,108096.00
2018-05-13T10:36:42.296Z,106464.00
2018-05-13T10:37:42.220Z,109440.00
2018-05-13T10:38:42.139Z,110464.00
2018-05-13T10:39:42.063Z,117344.00
2018-05-13T10:40:41.983Z,138912.00
2018-05-13T10:41:41.905Z,144064.00
2018-05-13T10:42:41.827Z,140512.00
2018-05-13T10:43:41.749Z,141952.00
2018-05-13T10:44:41.658Z,138176.00
2018-05-13T10:45:41.579Z,116384.00
2018-05-13T10:46:41.502Z,111488.00
2018-05-13T10:47:41.423Z,114272.00
2018-05-13T10:48:41.348Z,112480.00
2018-05-13T10:49:41.265Z,106912.00
2018-05-13T10:50:41.187Z,104224.00
2018-05-13T10:51:41.109Z,105376.00
2018-05-13T10:52:41.035Z,107136.00
2018-05-13T10:53:40.952Z,108032.00
2018-05-13T10:54:40.873Z,106912.00
2018-05-13T10:55:40.795Z,107552.00
2018-05-13T10:56:40.717Z,107104.00
2018-05-13T10:57:40.675Z,105600.00
2018-05-13T10:58:40.560Z,105344.00
2018-05-13T10:59:40.481Z,104320.00
2018-05-13T11:00:40.404Z,103840.00
2018-05-13T11:01:40.325Z,103520.00
2018-05-13T11:02:40.247Z,103296.00
2018-05-13T11:03:40.169Z,103712.00
2018-05-13T11:04:40.120Z,105120.00
2018-05-13T11:05:40.012Z,105664.00
2018-05-13T11:06:39.933Z,107648.00
2018-05-13T11:07:39.856Z,107712.00
2018-05-13T11:08:39.777Z,106624.00
2018-05-13T11:09:39.688Z,106240.00
2018-05-13T11:10:39.608Z,105472.00
2018-05-13T11:11:39.534Z,103264.00
2018-05-13T11:12:39.452Z,100352.00
2018-05-13T11:13:39.373Z,98464.00
2018-05-13T11:14:39.296Z,98208.00
2018-05-13T11:15:39.217Z,98720.00
2018-05-13T11:16:39.139Z,99360.00
2018-05-13T11:17:39.060Z,101312.00
2018-05-13T11:18:39.283Z,100320.00
2018-05-13T11:19:38.892Z,99008.00
2018-05-13T11:20:38.819Z,99712.00
2018-05-13T11:21:38.734Z,102112.00
2018-05-13T11:22:38.656Z,105120.00
2018-05-13T11:23:38.827Z,93344.00
2018-05-13T11:24:38.499Z,67744.00
2018-05-13T11:25:38.420Z,20256.00
2018-05-13T11:26:38.342Z,6816.00
2018-05-13T11:27:38.264Z,6668.00
2018-05-13T11:28:38.187Z,6584.00
2018-05-13T11:29:38.096Z,6512.00
2018-05-13T11:30:38.017Z,6440.00
2018-05-13T11:31:37.939Z,6376.00
2018-05-13T11:32:37.861Z,6308.00
2018-05-13T11:33:37.769Z,6264.00
2018-05-13T11:34:37.690Z,6240.00
2018-05-13T11:35:37.612Z,6220.00
2018-05-13T11:36:37.543Z,6192.00
2018-05-13T11:37:37.444Z,6188.00
2018-05-13T11:38:37.353Z,6188.00
2018-05-13T11:39:37.274Z,6164.00
2018-05-13T11:40:37.184Z,6132.00
2018-05-13T11:41:37.107Z,6104.00
2018-05-13T11:42:37.014Z,6068.00
2018-05-13T11:43:36.939Z,6040.00
2018-05-13T11:44:36.846Z,6012.00
2018-05-13T11:45:36.755Z,5968.00
2018-05-13T11:46:36.686Z,5960.00
2018-05-13T11:47:36.586Z,5960.00
2018-05-13T11:48:36.796Z,5964.00
2018-05-13T11:49:36.415Z,5960.00
2018-05-13T11:50:36.328Z,5928.00
2018-05-13T11:51:36.248Z,5932.00
2018-05-13T11:52:36.156Z,5952.00
2018-05-13T11:53:36.067Z,5976.00
2018-05-13T11:54:35.980Z,6100.00
2018-05-13T11:55:35.896Z,6412.00
2018-05-13T11:56:35.807Z,6732.00
2018-05-13T11:57:35.714Z,8904.00
2018-05-13T11:58:35.875Z,19040.00
2018-05-13T11:59:35.547Z,16524.00
2018-05-13T12:00:35.455Z,12712.00
2018-05-13T12:01:35.365Z,52096.00
2018-05-13T12:02:35.273Z,94656.00
2018-05-13T12:03:35.203Z,96736.00
2018-05-13T12:04:35.104Z,105600.00
2018-05-13T12:05:35.014Z,105280.00
2018-05-13T12:06:34.923Z,105024.00
2018-05-13T12:07:34.847Z,103136.00
2018-05-13T12:08:34.753Z,101440.00
2018-05-13T12:09:34.675Z,101024.00
2018-05-13T12:10:34.589Z,101920.00